Time;durP1;ratioP1;P1;durP2;ratioP2;P2;SDS_P1;SDS_P2;PMS_P1;PMS_P2;Temp;Humidity;BMP_temperature;BMP_pressure;BME280_temperature;BME280_humidity;BME280_pressure;Samples;Min_cycle;Max_cycle;Signal;HPM_P1;HPM_P2
2021/09/20 00:02:07;;;;;;;0.63;0.50;;;;;;;9.56;100.00;95017.06;5054576;28;20029;-51
2021/09/20 00:04:33;;;;;;;0.98;0.60;;;;;;;9.57;100.00;95018.69;5054506;28;20074;-50
2021/09/20 00:06:59;;;;;;;2.00;0.50;;;;;;;9.58;100.00;95024.84;5054582;28;20033;-52
2021/09/20 00:09:24;;;;;;;0.40;0.40;;;;;;;9.62;100.00;95022.44;5053139;28;20025;-55
2021/09/20 00:11:55;;;;;;;0.40;0.40;;;;;;;9.62;100.00;95023.22;5033076;28;20372;-48
2021/09/20 00:14:21;;;;;;;0.40;0.40;;;;;;;9.67;100.00;95019.81;5034504;28;20353;-50
2021/09/20 00:16:46;;;;;;;0.40;0.40;;;;;;;9.70;100.00;95029.97;5033133;28;20151;-50
2021/09/20 00:19:15;;;;;;;1.55;0.40;;;;;;;9.70;100.00;95019.28;5034448;28;20035;-50
2021/09/20 00:21:40;;;;;;;0.52;0.50;;;;;;;9.68;100.00;95027.56;5034222;28;20388;-50
2021/09/20 00:24:08;;;;;;;0.45;0.40;;;;;;;9.68;100.00;95037.44;5032930;28;20032;-53
2021/09/20 00:26:34;;;;;;;0.40;0.40;;;;;;;9.70;100.00;95024.63;5032997;28;20057;-50
2021/09/20 00:28:59;;;;;;;0.98;0.40;;;;;;;9.72;100.00;95025.16;5034148;28;20061;-48
2021/09/20 00:31:24;;;;;;;0.45;0.45;;;;;;;9.73;100.00;95024.88;5034112;28;20025;-54
2021/09/20 00:33:53;;;;;;;1.75;0.57;;;;;;;9.77;100.00;95020.66;5032924;28;20160;-49
2021/09/20 00:36:18;;;;;;;0.50;0.50;;;;;;;9.75;100.00;95021.94;5033146;28;20516;-50
2021/09/20 00:38:47;;;;;;;0.50;0.50;;;;;;;9.73;100.00;95016.06;5051306;28;20025;-49
2021/09/20 00:41:12;;;;;;;0.30;0.30;;;;;;;9.78;100.00;95016.91;5053695;28;20103;-49
2021/09/20 00:43:38;;;;;;;1.08;0.50;;;;;;;9.80;100.00;95020.13;5053709;28;20222;-56
2021/09/20 00:46:10;;;;;;;0.60;0.52;;;;;;;9.82;100.00;95015.31;5036027;28;20030;-55
2021/09/20 00:48:36;;;;;;;0.40;0.40;;;;;;;9.83;100.00;95022.25;5036023;28;20018;-55
2021/09/20 00:51:07;;;;;;;0.65;0.60;;;;;;;9.84;100.00;95015.03;5033919;28;20083;-54
2021/09/20 00:53:36;;;;;;;0.32;0.32;;;;;;;9.86;100.00;95012.91;5032316;28;20539;-54
2021/09/20 00:56:01;;;;;;;0.45;0.43;;;;;;;9.86;100.00;95019.06;5044771;28;20048;-56
2021/09/20 00:58:27;;;;;;;1.75;0.60;;;;;;;9.86;100.00;95019.06;5053551;28;20052;-55
2021/09/20 01:00:52;;;;;;;0.63;0.57;;;;;;;9.86;100.00;95024.41;5053450;28;20029;-56
2021/09/20 01:03:27;;;;;;;0.43;0.43;;;;;;;9.87;100.00;95019.84;5051410;28;20021;-56
2021/09/20 01:05:55;;;;;;;0.50;0.50;;;;;;;9.88;100.00;95019.63;5053389;28;20561;-54
2021/09/20 01:08:20;;;;;;;0.40;0.40;;;;;;;9.87;100.00;95020.66;5053394;28;20479;-53
2021/09/20 01:10:55;;;;;;;0.47;0.47;;;;;;;9.88;100.00;95022.31;5052004;28;20029;-56
2021/09/20 01:13:24;;;;;;;0.63;0.45;;;;;;;9.91;100.00;95020.16;5051819;28;20393;-53
2021/09/20 01:15:52;;;;;;;0.95;0.57;;;;;;;9.92;100.00;95016.41;5051955;28;20028;-51
2021/09/20 01:18:20;;;;;;;0.70;0.50;;;;;;;9.92;100.00;95022.56;5053138;28;20082;-50
2021/09/20 01:20:45;;;;;;;0.50;0.50;;;;;;;9.93;100.00;95020.69;5053095;28;20028;-54
2021/09/20 01:23:20;;;;;;;0.55;0.55;;;;;;;9.93;100.00;95028.72;5051845;28;20024;-50
2021/09/20 01:25:51;;;;;;;0.63;0.57;;;;;;;9.95;100.00;95026.59;5048436;28;20037;-55
2021/09/20 01:28:17;;;;;;;0.38;0.38;;;;;;;9.94;100.00;95022.31;5033099;28;20444;-54
2021/09/20 01:30:42;;;;;;;0.55;0.50;;;;;;;9.94;100.00;95028.47;5033064;28;20076;-56
2021/09/20 01:33:08;;;;;;;0.77;0.50;;;;;;;9.95;100.00;95027.38;5032839;28;20480;-50
2021/09/20 01:35:34;;;;;;;0.95;0.60;;;;;;;9.96;100.00;95029.00;5032736;28;20076;-53
2021/09/20 01:37:59;;;;;;;0.52;0.52;;;;;;;9.97;100.00;95027.13;5006478;28;20473;-57
2021/09/20 01:40:25;;;;;;;1.48;0.68;;;;;;;9.99;100.00;95022.34;5031624;28;20064;-53
2021/09/20 01:42:51;;;;;;;0.80;0.55;;;;;;;9.99;100.00;95022.34;5031358;28;20049;-50
2021/09/20 01:45:17;;;;;;;1.77;0.80;;;;;;;10.00;100.00;95023.94;5032802;28;20137;-51
2021/09/20 01:47:45;;;;;;;0.50;0.50;;;;;;;10.00;100.00;95024.75;5032734;28;20068;-52
2021/09/20 01:50:12;;;;;;;0.45;0.40;;;;;;;9.97;100.00;95027.13;5032724;28;20083;-53
2021/09/20 01:52:39;;;;;;;0.57;0.50;;;;;;;9.93;100.00;95024.19;5031591;28;20418;-51
2021/09/20 01:55:08;;;;;;;0.70;0.70;;;;;;;9.98;100.00;95024.19;5031643;28;20037;-55
2021/09/20 01:57:36;;;;;;;0.50;0.50;;;;;;;10.00;100.00;95022.06;5032606;28;20029;-56
2021/09/20 02:00:08;;;;;;;1.05;0.70;;;;;;;10.01;100.00;95021.00;5031080;28;20044;-50
2021/09/20 02:02:34;;;;;;;0.93;0.80;;;;;;;10.02;100.00;95022.63;5031260;28;20028;-52
2021/09/20 02:04:59;;;;;;;0.57;0.50;;;;;;;10.02;100.00;95017.25;5032478;28;20025;-53
2021/09/20 02:07:25;;;;;;;1.02;0.40;;;;;;;10.04;100.00;95017.00;5031121;28;20099;-57
2021/09/20 02:09:50;;;;;;;0.70;0.70;;;;;;;10.03;100.00;95010.03;5031454;28;20291;-56
2021/09/20 02:12:16;;;;;;;0.80;0.80;;;;;;;9.97;100.00;95024.44;5032467;28;20511;-55
2021/09/20 02:14:44;;;;;;;0.70;0.70;;;;;;;9.99;100.00;95022.34;5032488;28;20086;-56
2021/09/20 02:17:13;;;;;;;1.10;0.90;;;;;;;9.99;100.00;95012.44;5032380;28;20032;-50
2021/09/20 02:19:41;;;;;;;0.90;0.90;;;;;;;9.99;100.00;95009.75;5030976;28;20052;-50
2021/09/20 02:22:07;;;;;;;0.57;0.50;;;;;;;10.02;100.00;95008.44;5030976;28;20099;-52
2021/09/20 02:24:32;;;;;;;3.55;2.55;;;;;;;10.00;100.00;95008.69;5032321;28;20033;-53
2021/09/20 02:26:58;;;;;;;2.03;0.90;;;;;;;10.01;100.00;95007.63;4998201;28;20088;-54
2021/09/20 02:29:24;;;;;;;5.45;3.78;;;;;;;10.04;100.00;95011.63;5049303;28;20032;-54
2021/09/20 02:31:49;;;;;;;3.45;2.75;;;;;;;10.04;100.00;95008.97;5052032;28;20112;-53
2021/09/20 02:34:14;;;;;;;3.67;0.90;;;;;;;10.01;100.00;95014.84;5051993;28;20035;-54
2021/09/20 02:36:44;;;;;;;3.80;2.50;;;;;;;10.04;100.00;95007.09;5051039;28;20086;-54
2021/09/20 02:39:09;;;;;;;3.58;0.88;;;;;;;10.05;100.00;95005.22;5044943;28;20112;-53
2021/09/20 02:41:35;;;;;;;0.70;0.70;;;;;;;9.99;100.00;94999.06;5031521;28;20523;-53
2021/09/20 02:44:00;;;;;;;1.25;1.00;;;;;;;10.01;100.00;95001.47;5031822;28;20408;-57
2021/09/20 02:46:31;;;;;;;3.58;1.33;;;;;;;10.02;100.00;94989.69;5030799;28;20103;-50
2021/09/20 02:49:00;;;;;;;1.75;1.65;;;;;;;10.03;100.00;94993.97;5039663;28;20033;-54
2021/09/20 02:51:28;;;;;;;2.30;1.63;;;;;;;10.04;100.00;94993.72;5051787;28;20475;-51
2021/09/20 02:53:54;;;;;;;0.82;0.82;;;;;;;10.07;100.00;94995.06;5051941;28;20025;-56
2021/09/20 02:56:22;;;;;;;1.10;1.00;;;;;;;10.07;100.00;94992.38;5043785;28;20116;-54
2021/09/20 02:58:51;;;;;;;7.22;0.98;;;;;;;10.06;100.00;94986.22;5032289;28;20507;-54
2021/09/20 03:01:16;;;;;;;4.43;1.80;;;;;;;10.06;100.00;94988.09;5031861;28;20033;-55
2021/09/20 03:03:45;;;;;;;5.60;3.55;;;;;;;10.06;100.00;94991.56;5032000;28;20446;-54
2021/09/20 03:06:10;;;;;;;3.33;1.90;;;;;;;10.06;100.00;94991.56;5031813;28;20110;-53
2021/09/20 03:08:35;;;;;;;4.30;2.58;;;;;;;10.06;100.00;94988.09;5032013;28;20052;-52
2021/09/20 03:11:01;;;;;;;5.05;2.47;;;;;;;10.05;100.00;94987.28;5031800;28;20025;-51
2021/09/20 03:13:26;;;;;;;4.85;2.95;;;;;;;10.06;100.00;94993.44;5031621;28;20125;-51
2021/09/20 03:15:51;;;;;;;1.00;0.90;;;;;;;10.07;100.00;94992.38;5030714;28;20277;-49
2021/09/20 03:18:23;;;;;;;6.65;3.65;;;;;;;10.06;100.00;94996.13;5031887;28;20503;-50
2021/09/20 03:20:48;;;;;;;11.32;5.70;;;;;;;10.05;100.00;94995.31;5035733;28;20078;-54
2021/09/20 03:23:17;;;;;;;4.82;3.60;;;;;;;10.06;100.00;95002.28;5049985;28;20406;-53
2021/09/20 03:25:42;;;;;;;5.63;3.53;;;;;;;10.06;100.00;94999.59;5052243;28;20033;-52
2021/09/20 03:28:10;;;;;;;7.55;3.95;;;;;;;10.08;100.00;95002.00;5054223;28;20017;-52
2021/09/20 03:30:35;;;;;;;8.95;4.45;;;;;;;10.08;100.00;94991.31;5054015;28;20021;-53
2021/09/20 03:33:00;;;;;;;9.05;4.63;;;;;;;10.08;100.00;94993.97;5055111;28;20075;-50
2021/09/20 03:35:26;;;;;;;34.65;17.35;;;;;;;10.08;100.00;94996.66;5050779;28;20032;-53
2021/09/20 03:37:51;;;;;;;26.58;11.82;;;;;;;10.08;100.00;94992.09;5033921;28;20026;-54
2021/09/20 03:40:20;;;;;;;29.17;12.68;;;;;;;10.10;100.00;94999.91;5017867;28;20083;-53
2021/09/20 03:42:46;;;;;;;16.88;11.15;;;;;;;10.10;100.00;94997.22;5026945;28;20037;-55
2021/09/20 03:45:19;;;;;;;6.10;5.50;;;;;;;10.11;100.00;95004.19;5054620;28;20064;-54
2021/09/20 03:47:44;;;;;;;1.85;1.50;;;;;;;10.09;100.00;95000.94;5046629;28;20071;-52
2021/09/20 03:50:11;;;;;;;1.70;1.40;;;;;;;10.09;100.00;95001.78;5034987;28;20026;-54
2021/09/20 03:52:36;;;;;;;1.25;1.15;;;;;;;10.09;100.00;95007.13;5035191;28;20037;-51
2021/09/20 03:55:03;;;;;;;1.20;1.10;;;;;;;10.09;100.00;95003.63;5046233;28;20029;-53
2021/09/20 03:57:31;;;;;;;2.35;1.50;;;;;;;10.09;100.00;95003.63;5033722;28;20033;-51
2021/09/20 03:59:57;;;;;;;2.47;1.30;;;;;;;10.10;100.00;95003.38;5035115;28;20476;-49
2021/09/20 04:02:22;;;;;;;2.05;1.70;;;;;;;10.10;100.00;95005.25;5035073;28;20040;-49
2021/09/20 04:04:56;;;;;;;1.73;1.38;;;;;;;10.10;100.00;94994.53;5042501;28;20025;-53
2021/09/20 04:07:21;;;;;;;1.40;1.20;;;;;;;10.09;100.00;94991.06;5054547;28;20090;-50
2021/09/20 04:09:47;;;;;;;0.95;0.80;;;;;;;10.08;100.00;94994.78;5054679;28;20020;-56
2021/09/20 04:12:12;;;;;;;0.77;0.77;;;;;;;10.07;100.00;95001.22;5053114;28;20476;-50
2021/09/20 04:14:38;;;;;;;0.88;0.88;;;;;;;10.07;100.00;94998.53;5045569;28;20112;-48
2021/09/20 04:17:09;;;;;;;1.00;0.80;;;;;;;10.05;100.00;94999.88;5034905;28;20386;-53
2021/09/20 04:19:38;;;;;;;0.80;0.80;;;;;;;10.06;100.00;95006.81;5054546;28;20479;-55
2021/09/20 04:22:03;;;;;;;0.70;0.70;;;;;;;10.05;100.00;94998.00;5054312;28;20052;-52
2021/09/20 04:24:29;;;;;;;1.00;0.90;;;;;;;10.05;100.00;94997.19;5053282;28;20059;-53
2021/09/20 04:27:04;;;;;;;0.70;0.70;;;;;;;10.06;100.00;94996.13;5038194;28;20030;-54
2021/09/20 04:29:29;;;;;;;1.00;1.00;;;;;;;10.06;100.00;94999.59;5034309;28;20451;-50
2021/09/20 04:31:55;;;;;;;1.95;0.80;;;;;;;10.07;100.00;94997.72;5032904;28;20057;-53
2021/09/20 04:34:24;;;;;;;2.08;0.90;;;;;;;10.07;100.00;95000.41;5034040;28;20095;-52
2021/09/20 04:36:50;;;;;;;0.60;0.60;;;;;;;10.07;100.00;94990.50;5034124;28;20039;-53
2021/09/20 04:39:16;;;;;;;1.08;1.00;;;;;;;10.08;100.00;94993.97;5032782;28;20530;-53
2021/09/20 04:41:48;;;;;;;0.88;0.77;;;;;;;10.05;100.00;94995.31;5034713;28;20026;-62
2021/09/20 04:44:13;;;;;;;0.90;0.90;;;;;;;10.04;100.00;94999.06;5036062;28;20120;-62
2021/09/20 04:46:39;;;;;;;1.80;0.80;;;;;;;10.02;100.00;94998.53;5035858;28;20107;-61
2021/09/20 04:49:07;;;;;;;0.63;0.63;;;;;;;10.00;100.00;95000.66;5053695;28;20068;-62
2021/09/20 04:51:33;;;;;;;1.77;0.80;;;;;;;10.00;100.00;94994.50;5053651;28;20029;-60
2021/09/20 04:54:00;;;;;;;1.08;0.80;;;;;;;9.98;100.00;95002.78;5035877;28;20056;-60
2021/09/20 04:56:29;;;;;;;1.38;0.85;;;;;;;9.97;100.00;94995.81;5016354;28;20036;-59
2021/09/20 04:58:54;;;;;;;1.17;0.68;;;;;;;9.96;100.00;95001.44;5033749;28;20035;-60
2021/09/20 05:01:20;;;;;;;1.02;0.93;;;;;;;9.96;100.00;95004.91;5035759;28;20025;-60
2021/09/20 05:03:45;;;;;;;0.90;0.90;;;;;;;9.96;100.00;95004.91;5053430;28;20047;-60
2021/09/20 05:06:10;;;;;;;0.90;0.90;;;;;;;9.96;100.00;95006.78;5053659;28;20067;-60
2021/09/20 05:08:36;;;;;;;1.17;1.08;;;;;;;9.96;100.00;95017.50;4961183;28;20059;-60
2021/09/20 05:11:01;;;;;;;0.90;0.80;;;;;;;9.96;100.00;95012.94;5025141;28;20030;-60
2021/09/20 05:13:27;;;;;;;1.05;0.80;;;;;;;9.96;100.00;95007.59;5067032;28;20028;-60
2021/09/20 05:15:53;;;;;;;1.35;1.00;;;;;;;9.96;100.00;95017.50;5073533;28;20032;-60
2021/09/20 05:18:18;;;;;;;1.23;1.13;;;;;;;9.96;100.00;95017.50;5073103;28;20425;-60
2021/09/20 05:20:53;;;;;;;1.27;1.10;;;;;;;9.97;100.00;95014.56;5073169;28;20037;-60
2021/09/20 05:23:18;;;;;;;1.08;1.00;;;;;;;9.97;100.00;95011.88;5072736;28;20047;-60
2021/09/20 05:25:44;;;;;;;1.30;1.20;;;;;;;9.97;100.00;95022.56;5073105;28;20021;-60
2021/09/20 05:28:12;;;;;;;1.98;1.60;;;;;;;10.01;100.00;95010.31;5049390;28;20111;-60
2021/09/20 05:30:37;;;;;;;1.58;1.40;;;;;;;10.03;100.00;95010.84;5039488;28;20025;-60
2021/09/20 05:33:04;;;;;;;1.48;1.38;;;;;;;10.04;100.00;95017.78;5039229;28;20095;-60
2021/09/20 05:35:45;;;;;;;3.65;3.35;;;;;;;10.06;100.00;95017.53;5044661;28;20033;-58
2021/09/20 05:38:12;;;;;;;1.60;1.50;;;;;;;10.08;100.00;95013.50;5021665;28;20035;-60
2021/09/20 05:40:37;;;;;;;4.32;2.00;;;;;;;10.10;100.00;95014.09;5052439;28;20032;-60
2021/09/20 05:43:12;;;;;;;2.75;1.90;;;;;;;10.12;100.00;95013.81;5034520;28;20131;-60
2021/09/20 05:45:38;;;;;;;3.38;2.15;;;;;;;10.14;100.00;95011.69;5046278;28;20025;-60
2021/09/20 05:48:03;;;;;;;2.45;2.22;;;;;;;10.15;100.00;95015.97;5037258;28;20515;-60
2021/09/20 05:50:29;;;;;;;2.13;1.92;;;;;;;10.16;100.00;95021.03;5054773;28;20052;-60
2021/09/20 05:52:55;;;;;;;1.90;1.80;;;;;;;10.16;100.00;95013.00;5046220;28;20025;-60
2021/09/20 05:55:22;;;;;;;2.45;2.10;;;;;;;10.16;100.00;95015.69;5044987;28;20055;-60
2021/09/20 05:57:47;;;;;;;2.28;2.10;;;;;;;10.16;100.00;95015.69;5033237;28;20024;-60
2021/09/20 06:00:14;;;;;;;2.38;2.10;;;;;;;10.16;100.00;95015.69;5044622;28;20032;-60
2021/09/20 06:02:40;;;;;;;2.35;2.15;;;;;;;10.16;100.00;95014.88;5038892;28;20467;-60
2021/09/20 06:05:12;;;;;;;2.63;2.42;;;;;;;10.19;100.00;95011.66;5039316;28;20502;-59
2021/09/20 06:07:38;;;;;;;2.42;2.22;;;;;;;10.18;100.00;95010.88;5045443;28;20392;-60
2021/09/20 06:10:13;;;;;;;2.17;2.00;;;;;;;10.19;100.00;95011.66;5031181;28;20047;-60
2021/09/20 06:12:39;;;;;;;2.30;2.10;;;;;;;10.21;100.00;95012.25;5021293;28;20033;-60
2021/09/20 06:15:06;;;;;;;1.98;1.88;;;;;;;10.22;100.00;95011.19;5044608;28;20482;-60
2021/09/20 06:17:34;;;;;;;2.25;2.05;;;;;;;10.26;100.00;95019.50;5030466;28;20053;-60
2021/09/20 06:20:00;;;;;;;2.20;2.10;;;;;;;10.27;100.00;95013.88;5032599;28;20021;-62
2021/09/20 06:22:29;;;;;;;2.30;2.10;;;;;;;10.30;100.00;95015.22;5030392;28;20091;-63
2021/09/20 06:24:56;;;;;;;2.05;1.80;;;;;;;10.31;100.00;95014.97;5049332;28;20172;-60
2021/09/20 06:27:28;;;;;;;1.83;1.73;;;;;;;10.32;100.00;95013.91;5042543;28;20433;-60
2021/09/20 06:29:53;;;;;;;2.20;1.73;;;;;;;10.35;100.00;95010.69;5040818;28;20361;-60
2021/09/20 06:32:19;;;;;;;1.80;1.70;;;;;;;10.36;100.00;95008.81;5035196;28;20037;-60
2021/09/20 06:34:44;;;;;;;2.08;1.80;;;;;;;10.37;100.00;95005.88;5035856;28;20024;-60
2021/09/20 06:37:10;;;;;;;1.88;1.77;;;;;;;10.39;100.00;95009.06;5048806;28;20073;-60
2021/09/20 06:39:47;;;;;;;1.98;1.50;;;;;;;10.41;100.00;95011.50;5033819;28;20028;-59
2021/09/20 06:42:13;;;;;;;1.50;1.40;;;;;;;10.42;100.00;95013.13;5048877;28;20045;-60
2021/09/20 06:44:44;;;;;;;1.98;1.50;;;;;;;10.49;100.00;95010.97;5045936;28;20021;-59
2021/09/20 06:47:10;;;;;;;3.20;1.55;;;;;;;10.52;100.00;95014.97;5051357;28;20039;-60
2021/09/20 06:49:36;;;;;;;1.20;1.10;;;;;;;10.53;100.00;95006.72;5055550;28;20025;-60
2021/09/20 06:52:09;;;;;;;1.40;1.30;;;;;;;10.55;100.00;95015.28;5061764;28;20403;-60
2021/09/20 06:54:35;;;;;;;2.05;1.20;;;;;;;10.57;100.00;95013.13;5072019;28;20028;-60
2021/09/20 06:57:00;;;;;;;1.95;1.50;;;;;;;10.59;100.00;95010.19;5071884;28;20089;-60
2021/09/20 06:59:26;;;;;;;1.95;1.40;;;;;;;10.61;100.00;95013.41;5054229;28;20029;-60
2021/09/20 07:01:57;;;;;;;1.40;1.30;;;;;;;10.63;100.00;95027.31;5075645;28;20020;-60
2021/09/20 07:04:29;;;;;;;1.65;1.20;;;;;;;10.63;100.00;95014.72;5075715;28;20055;-60
2021/09/20 07:06:56;;;;;;;3.08;1.25;;;;;;;10.62;100.00;95020.34;5057759;28;20055;-60
2021/09/20 07:09:25;;;;;;;1.33;1.23;;;;;;;10.63;100.00;95016.59;5057850;28;20031;-60
2021/09/20 07:11:50;;;;;;;1.50;1.20;;;;;;;10.65;100.00;95020.66;5075403;28;20525;-60
2021/09/20 07:14:22;;;;;;;1.58;1.27;;;;;;;10.66;100.00;95019.56;5059210;28;20021;-59
2021/09/20 07:16:47;;;;;;;1.20;1.10;;;;;;;10.70;100.00;95019.84;5050462;28;20013;-59
2021/09/20 07:19:13;;;;;;;1.73;1.40;;;;;;;10.70;100.00;95019.84;5050470;28;20032;-59
2021/09/20 07:21:38;;;;;;;1.58;1.40;;;;;;;10.74;100.00;95021.72;5052330;28;20016;-60
2021/09/20 07:24:04;;;;;;;1.40;1.30;;;;;;;10.77;100.00;95028.44;5046863;28;20545;-60
2021/09/20 07:26:32;;;;;;;2.22;1.40;;;;;;;10.71;100.00;95024.13;5032254;28;20112;-56
2021/09/20 07:29:01;;;;;;;1.33;1.15;;;;;;;10.75;100.00;95030.56;5036078;28;20029;-60
2021/09/20 07:31:28;;;;;;;2.13;1.20;;;;;;;10.77;100.00;95031.09;5048756;28;20024;-59
2021/09/20 07:33:54;;;;;;;2.25;1.88;;;;;;;10.81;100.00;95034.03;5043397;28;20024;-60
2021/09/20 07:36:20;;;;;;;1.30;1.20;;;;;;;10.83;100.00;95035.38;5014346;28;20276;-58
2021/09/20 07:38:45;;;;;;;2.10;1.38;;;;;;;10.87;100.00;95035.66;5023398;28;20431;-60
2021/09/20 07:41:11;;;;;;;1.42;1.33;;;;;;;10.92;100.00;95035.66;5053614;28;20033;-60
2021/09/20 07:43:38;;;;;;;1.77;1.15;;;;;;;10.89;100.00;95038.88;5052142;28;20123;-56
2021/09/20 07:46:06;;;;;;;1.00;1.00;;;;;;;10.89;100.00;95039.69;5035839;28;20399;-60
2021/09/20 07:48:32;;;;;;;1.67;1.20;;;;;;;10.92;100.00;95043.69;5051783;28;20116;-60
2021/09/20 07:50:57;;;;;;;1.40;1.30;;;;;;;10.92;100.00;95043.69;5046892;28;20028;-57
2021/09/20 07:53:22;;;;;;;1.27;1.17;;;;;;;10.90;100.00;95033.25;5024675;28;20434;-56
2021/09/20 07:55:48;;;;;;;2.35;1.00;;;;;;;10.90;100.00;95046.66;5035632;28;20055;-58
2021/09/20 07:58:14;;;;;;;3.45;1.20;;;;;;;10.91;100.00;95050.13;5029655;28;20021;-60
2021/09/20 08:00:44;;;;;;;1.20;1.10;;;;;;;10.91;100.00;95053.59;5051993;28;20021;-60
2021/09/20 08:03:18;;;;;;;1.50;1.20;;;;;;;10.91;100.00;95052.81;5047338;28;20491;-60
2021/09/20 08:05:45;;;;;;;1.40;1.20;;;;;;;10.93;100.00;95053.34;5042850;28;20461;-60
2021/09/20 08:08:10;;;;;;;1.30;1.17;;;;;;;10.96;100.00;95052.78;5042916;28;20052;-59
2021/09/20 08:10:42;;;;;;;1.20;1.10;;;;;;;11.03;100.00;95045.31;5039156;28;20496;-59
2021/09/20 08:13:11;;;;;;;2.33;1.40;;;;;;;11.10;100.00;95047.72;5050234;28;20033;-59
2021/09/20 08:15:37;;;;;;;1.35;1.23;;;;;;;11.17;100.00;95054.41;5046438;28;20503;-59
2021/09/20 08:18:03;;;;;;;1.20;1.10;;;;;;;11.23;100.00;95052.53;5018352;28;20029;-59
2021/09/20 08:20:29;;;;;;;1.10;1.00;;;;;;;11.27;100.00;95057.09;5054496;28;20075;-59
2021/09/20 08:22:55;;;;;;;1.13;1.02;;;;;;;11.31;100.00;95058.16;5051127;28;20422;-59
2021/09/20 08:25:24;;;;;;;2.85;1.85;;;;;;;11.31;100.00;95050.13;5016607;28;20028;-60
2021/09/20 08:27:59;;;;;;;1.10;1.00;;;;;;;11.29;100.00;95060.31;5074288;28;20360;-59
2021/09/20 08:30:25;;;;;;;1.58;1.15;;;;;;;11.29;100.00;95060.31;5056679;28;20036;-59
2021/09/20 08:32:51;;;;;;;2.55;1.00;;;;;;;11.31;100.00;95066.22;5056139;28;20024;-59
2021/09/20 08:35:22;;;;;;;1.25;0.90;;;;;;;11.35;100.00;95066.47;5074074;28;20028;-60
2021/09/20 08:37:48;;;;;;;1.92;0.70;;;;;;;11.39;100.00;95069.41;5074033;28;20028;-59
2021/09/20 08:40:18;;;;;;;1.35;1.05;;;;;;;11.35;100.00;95071.81;5073768;28;20028;-60
2021/09/20 08:42:44;;;;;;;1.10;1.00;;;;;;;11.33;100.00;95079.34;5041870;28;20089;-60
2021/09/20 08:45:16;;;;;;;2.63;1.27;;;;;;;11.31;100.00;95076.13;5073942;28;20387;-60
2021/09/20 08:47:45;;;;;;;2.03;0.95;;;;;;;11.26;100.00;95082.28;5066889;28;20044;-60
2021/09/20 08:50:12;;;;;;;1.48;0.98;;;;;;;11.22;100.00;95083.09;5053728;28;20488;-60
2021/09/20 08:52:41;;;;;;;3.70;0.90;;;;;;;11.17;100.00;95085.78;5035613;28;20484;-60
2021/09/20 08:55:07;;;;;;;1.05;0.93;;;;;;;11.18;100.00;95092.75;5053690;28;20035;-60
2021/09/20 08:57:41;;;;;;;1.92;0.88;;;;;;;11.15;100.00;95088.72;5035971;28;20024;-60
2021/09/20 09:00:13;;;;;;;1.05;0.95;;;;;;;11.17;100.00;95097.28;5035555;28;20115;-60
2021/09/20 09:02:42;;;;;;;1.58;0.93;;;;;;;11.20;100.00;95090.63;5016223;28;20388;-60
2021/09/20 09:05:28;;;;;;;2.58;0.80;;;;;;;11.23;100.00;95085.50;5030077;28;20095;-60
2021/09/20 09:07:57;;;;;;;2.35;0.70;;;;;;;11.30;100.00;95085.25;5053593;28;20158;-60
2021/09/20 09:10:36;;;;;;;0.77;0.68;;;;;;;11.36;100.00;95088.72;5053091;28;20514;-60
2021/09/20 09:13:04;;;;;;;1.17;0.80;;;;;;;11.38;100.00;95090.06;5035341;28;20492;-60
2021/09/20 09:15:31;;;;;;;1.60;0.80;;;;;;;11.37;100.00;95085.75;5053179;28;20099;-60
2021/09/20 09:18:01;;;;;;;0.63;0.50;;;;;;;11.42;100.00;95085.78;5053727;28;20025;-60
2021/09/20 09:20:43;;;;;;;1.08;0.80;;;;;;;11.48;100.00;95089.25;5057452;28;20028;-60
2021/09/20 09:23:13;;;;;;;0.73;0.68;;;;;;;11.54;100.00;95090.88;5065542;28;20025;-60
2021/09/20 09:25:49;;;;;;;2.38;0.65;;;;;;;11.60;100.00;95089.75;5073158;28;20028;-60
2021/09/20 09:28:21;;;;;;;0.80;0.80;;;;;;;11.65;100.00;95089.78;5072982;28;20479;-59
2021/09/20 09:30:59;;;;;;;2.25;0.93;;;;;;;11.64;100.00;95090.84;5073008;28;20033;-60
2021/09/20 09:33:49;;;;;;;2.13;0.73;;;;;;;11.66;100.00;95094.06;5072791;28;20029;-60
2021/09/20 09:36:18;;;;;;;0.50;0.50;;;;;;;11.67;100.00;95098.34;5054877;28;20036;-60
2021/09/20 09:39:00;;;;;;;1.33;0.65;;;;;;;11.70;100.00;95100.47;5072855;28;20112;-60
2021/09/20 09:41:41;;;;;;;1.25;0.68;;;;;;;11.70;100.00;95102.38;5057373;28;20021;-60
2021/09/20 09:44:17;;;;;;;1.10;0.70;;;;;;;11.77;100.00;95106.38;5031862;28;20041;-60
2021/09/20 09:46:49;;;;;;;0.60;0.60;;;;;;;11.84;100.00;95106.16;5034353;28;20419;-60
2021/09/20 09:49:17;;;;;;;0.93;0.43;;;;;;;11.83;100.00;95108.03;5037667;28;20029;-60
2021/09/20 09:51:58;;;;;;;1.13;0.40;;;;;;;11.83;100.00;95099.97;5049996;28;20047;-60
2021/09/20 09:54:37;;;;;;;0.40;0.40;;;;;;;11.78;100.00;95110.66;5045842;28;20450;-60
2021/09/20 09:57:23;;;;;;;1.17;0.40;;;;;;;11.83;100.00;95102.66;5033628;28;20116;-60
2021/09/20 10:00:16;;;;;;;0.43;0.43;;;;;;;11.90;100.00;95096.97;5033505;28;20517;-60
2021/09/20 10:02:44;;;;;;;0.60;0.50;;;;;;;12.00;100.00;95096.16;5013041;28;20389;-60
2021/09/20 10:05:18;;;;;;;0.88;0.50;;;;;;;12.05;100.00;95094.28;5030380;28;20039;-60
2021/09/20 10:07:49;;;;;;;1.33;0.30;;;;;;;12.09;100.00;95092.63;5051061;28;20369;-60
2021/09/20 10:10:32;;;;;;;1.98;0.93;;;;;;;12.25;100.00;95081.81;5049815;28;20299;-56
2021/09/20 10:13:03;;;;;;;1.85;0.50;;;;;;;12.39;100.00;95086.34;5043198;28;20184;-59
2021/09/20 10:15:28;;;;;;;0.68;0.47;;;;;;;12.55;100.00;95089.75;5031484;28;20031;-60
2021/09/20 10:17:54;;;;;;;0.85;0.52;;;;;;;12.59;100.00;95077.38;5050441;28;20545;-59
2021/09/20 10:20:28;;;;;;;0.52;0.45;;;;;;;12.71;100.00;95067.09;5038198;28;20028;-60
2021/09/20 10:22:55;;;;;;;1.50;0.60;;;;;;;12.94;100.00;95075.56;5026916;28;20471;-60
2021/09/20 10:25:22;;;;;;;0.60;0.60;;;;;;;12.96;100.00;95071.50;5046199;28;20025;-60
2021/09/20 10:27:58;;;;;;;0.73;0.57;;;;;;;13.11;100.00;95072.47;5046737;28;20040;-60
2021/09/20 10:30:25;;;;;;;0.65;0.65;;;;;;;13.30;100.00;95068.03;5032276;28;20021;-61
2021/09/20 10:33:00;;;;;;;1.13;0.50;;;;;;;13.36;100.00;95061.53;5049977;28;20127;-61
2021/09/20 10:35:54;;;;;;;0.50;0.50;;;;;;;13.45;100.00;95062.50;5056836;28;20157;-61
2021/09/20 10:38:24;;;;;;;1.20;0.50;;;;;;;13.48;100.00;95063.88;5057558;28;20297;-61
2021/09/20 10:41:18;;;;;;;1.10;0.52;;;;;;;13.50;100.00;95061.69;5057637;28;20380;-61
2021/09/20 10:43:48;;;;;;;0.60;0.50;;;;;;;13.53;100.00;95066.50;5056093;28;20527;-59
2021/09/20 10:46:24;;;;;;;0.52;0.45;;;;;;;13.53;100.00;95056.53;5057311;28;20041;-60
2021/09/20 10:48:55;;;;;;;0.40;0.40;;;;;;;13.56;100.00;95058.66;5057704;28;20025;-60
2021/09/20 10:51:28;;;;;;;0.93;0.40;;;;;;;13.62;100.00;95052.13;5050568;28;20435;-60
2021/09/20 10:54:17;;;;;;;0.47;0.40;;;;;;;13.62;100.00;95048.66;5075590;28;20052;-59
2021/09/20 10:56:47;;;;;;;0.40;0.40;;;;;;;13.63;100.00;95050.25;5077750;28;20380;-59
2021/09/20 10:59:15;;;;;;;0.80;0.50;;;;;;;13.58;100.00;95048.41;5058674;28;20483;-60
2021/09/20 11:01:41;;;;;;;0.98;0.50;;;;;;;13.62;100.00;95045.94;5059491;28;20028;-59
2021/09/20 11:04:20;;;;;;;1.05;0.60;;;;;;;13.59;100.00;95044.66;5077291;28;20284;-59
2021/09/20 11:07:09;;;;;;;0.60;0.60;;;;;;;13.58;100.00;95044.94;5077555;28;20051;-61
2021/09/20 11:09:38;;;;;;;0.70;0.70;;;;;;;13.53;100.00;95039.59;5076787;28;20024;-59
2021/09/20 11:12:07;;;;;;;1.35;0.65;;;;;;;13.48;100.00;95036.97;5059638;28;20032;-60
2021/09/20 11:14:42;;;;;;;1.35;0.80;;;;;;;13.43;100.00;95035.09;5059294;28;20038;-59
2021/09/20 11:17:27;;;;;;;0.95;0.80;;;;;;;13.40;100.00;95030.28;5077670;28;20029;-60
2021/09/20 11:19:55;;;;;;;1.00;0.90;;;;;;;13.40;100.00;95030.28;5061820;28;20033;-60
2021/09/20 11:22:26;;;;;;;1.20;1.10;;;;;;;13.35;100.00;95027.66;5037991;28;20078;-58
2021/09/20 11:25:09;;;;;;;0.98;0.90;;;;;;;13.37;100.00;95027.38;5049435;28;20052;-60
2021/09/20 11:27:46;;;;;;;;;;;;;;;13.39;100.00;95020.63;5047110;28;20067;-60
2021/09/20 11:30:20;;;;;;;0.88;0.88;;;;;;;13.41;100.00;95018.44;5068361;28;19928;-60
2021/09/20 11:32:57;;;;;;;0.80;0.80;;;;;;;13.41;100.00;95018.44;5059994;28;20384;-60
2021/09/20 11:35:27;;;;;;;0.80;0.80;;;;;;;13.30;100.00;95014.25;5034811;28;20021;-60